createdAt,value
2023-01-30T00:01:25.136Z,-0.29
2023-01-30T00:03:53.078Z,-0.26
2023-01-30T00:06:22.087Z,-0.25
2023-01-30T00:08:50.149Z,-0.23
2023-01-30T00:11:20.346Z,-0.24
2023-01-30T00:13:50.019Z,-0.25
2023-01-30T00:16:18.806Z,-0.20
2023-01-30T00:18:46.932Z,-0.19
2023-01-30T00:21:15.473Z,-0.22
2023-01-30T00:23:44.297Z,-0.23
2023-01-30T00:26:12.637Z,-0.24
2023-01-30T00:28:41.390Z,-0.21
2023-01-30T00:31:09.830Z,-0.24
2023-01-30T00:33:38.897Z,-0.26
2023-01-30T00:36:07.241Z,-0.27
2023-01-30T00:38:35.135Z,-0.28
2023-01-30T00:41:03.245Z,-0.28
2023-01-30T00:43:50.307Z,-0.32
2023-01-30T00:46:51.652Z,-0.33
2023-01-30T00:49:20.954Z,-0.35
2023-01-30T00:51:49.776Z,-0.35
2023-01-30T00:54:18.175Z,-0.37
2023-01-30T00:56:46.185Z,-0.35
2023-01-30T00:59:14.061Z,-0.35
2023-01-30T01:01:41.990Z,-0.36
2023-01-30T01:04:13.713Z,-0.38
2023-01-30T01:06:41.926Z,-0.38
2023-01-30T01:09:09.702Z,-0.39
2023-01-30T01:11:37.539Z,-0.41
2023-01-30T01:14:06.738Z,-0.38
2023-01-30T01:16:37.003Z,-0.36
2023-01-30T01:19:05.003Z,-0.38
2023-01-30T01:21:33.134Z,-0.38
2023-01-30T01:24:01.245Z,-0.37
2023-01-30T01:26:29.175Z,-0.35
2023-01-30T01:28:58.273Z,-0.34
2023-01-30T01:31:26.661Z,-0.30
2023-01-30T01:33:57.003Z,-0.32
2023-01-30T01:36:52.074Z,-0.33
2023-01-30T01:39:14.656Z,-0.33
2023-01-30T01:41:43.184Z,-0.33
2023-01-30T01:44:13.995Z,-0.32
2023-01-30T01:46:53.383Z,-0.31
2023-01-30T01:49:26.455Z,-0.33
2023-01-30T01:52:04.177Z,-0.33
2023-01-30T01:54:38.347Z,-0.34
2023-01-30T01:57:12.933Z,-0.34
2023-01-30T01:59:50.310Z,-0.32
2023-01-30T02:02:20.047Z,-0.35
2023-01-30T02:05:02.481Z,-0.36
2023-01-30T02:07:43.724Z,-0.37
2023-01-30T02:10:18.014Z,-0.39
2023-01-30T02:12:50.856Z,-0.40
2023-01-30T02:15:20.328Z,-0.41
2023-01-30T02:17:48.394Z,-0.42
2023-01-30T02:20:52.241Z,-0.42
2023-01-30T02:23:40.358Z,-0.42
2023-01-30T02:26:18.170Z,-0.40
2023-01-30T02:29:10.595Z,-0.41
2023-01-30T02:31:56.960Z,-0.42
2023-01-30T02:35:02.442Z,-0.43
2023-01-30T02:37:39.745Z,-0.46
2023-01-30T02:40:19.967Z,-0.45
2023-01-30T02:43:16.164Z,-0.42
2023-01-30T02:46:08.913Z,-0.42
2023-01-30T02:48:50.225Z,-0.44
2023-01-30T02:51:28.630Z,-0.46
2023-01-30T02:53:56.745Z,-0.46
2023-01-30T02:56:24.691Z,-0.48
2023-01-30T02:58:58.037Z,-0.49
2023-01-30T03:02:05.555Z,-0.52
2023-01-30T03:04:57.050Z,-0.55
2023-01-30T03:07:46.078Z,-0.62
2023-01-30T03:10:30.068Z,-0.64
2023-01-30T03:13:16.011Z,-0.69
2023-01-30T03:15:57.454Z,-0.72
2023-01-30T03:18:25.566Z,-0.77
2023-01-30T03:20:54.176Z,-0.78
2023-01-30T03:23:22.148Z,-0.84
2023-01-30T03:25:50.033Z,-0.85
2023-01-30T03:28:21.424Z,-0.85
2023-01-30T03:30:49.720Z,-0.91
2023-01-30T03:33:17.711Z,-0.89
2023-01-30T03:35:49.651Z,-0.91
2023-01-30T03:38:18.459Z,-0.92
2023-01-30T03:40:47.995Z,-0.95
2023-01-30T03:43:16.460Z,-0.95
2023-01-30T03:45:44.542Z,-0.99
2023-01-30T03:48:12.552Z,-1.03
2023-01-30T03:50:40.537Z,-1.02
2023-01-30T03:53:08.475Z,-1.02
2023-01-30T03:55:36.886Z,-1.05
2023-01-30T03:58:05.270Z,-1.06
2023-01-30T04:05:07.755Z,-1.06
2023-01-30T04:07:37.004Z,-1.07
2023-01-30T04:10:05.874Z,-1.05
2023-01-30T04:12:33.765Z,-1.06
2023-01-30T04:15:02.192Z,-1.06
2023-01-30T04:17:40.519Z,-1.03
2023-01-30T04:20:23.548Z,-1.00
2023-01-30T04:22:55.838Z,-1.01
2023-01-30T04:25:23.947Z,-1.00
2023-01-30T04:27:52.005Z,-0.99
2023-01-30T04:34:57.173Z,-0.98
2023-01-30T04:37:23.816Z,-0.96
2023-01-30T04:39:50.716Z,-0.94
2023-01-30T04:42:17.454Z,-0.97
2023-01-30T04:44:55.896Z,-0.96
2023-01-30T04:47:27.315Z,-0.94
2023-01-30T04:49:54.091Z,-0.93
2023-01-30T04:52:20.790Z,-0.93
2023-01-30T04:54:47.350Z,-0.89
2023-01-30T04:57:15.013Z,-0.86
2023-01-30T04:59:41.718Z,-0.86
2023-01-30T05:02:09.400Z,-0.82
2023-01-30T05:04:35.949Z,-0.82
2023-01-30T05:07:02.399Z,-0.81
2023-01-30T05:09:28.873Z,-0.85
2023-01-30T05:11:55.358Z,-0.82
2023-01-30T05:14:21.902Z,-0.84
2023-01-30T05:16:48.520Z,-0.84
2023-01-30T05:19:15.100Z,-0.84
2023-01-30T05:21:41.560Z,-0.82
2023-01-30T05:24:08.233Z,-0.83
2023-01-30T05:26:34.780Z,-0.87
2023-01-30T05:29:02.271Z,-0.90
2023-01-30T05:31:28.920Z,-0.89
2023-01-30T05:33:55.503Z,-0.92
2023-01-30T05:36:23.157Z,-0.93
2023-01-30T05:38:49.852Z,-0.93
2023-01-30T05:41:17.479Z,-0.92
2023-01-30T05:43:48.412Z,-0.95
2023-01-30T05:46:15.026Z,-0.96
2023-01-30T05:48:41.933Z,-0.91
2023-01-30T05:51:20.130Z,-0.94
2023-01-30T05:53:50.522Z,-0.97
2023-01-30T05:56:17.667Z,-0.97
2023-01-30T05:58:50.549Z,-0.99
2023-01-30T06:01:17.034Z,-1.00
2023-01-30T06:03:43.498Z,-1.02
2023-01-30T06:06:11.537Z,-1.04
2023-01-30T06:08:38.101Z,-1.01
2023-01-30T06:11:07.691Z,-1.01
2023-01-30T06:13:34.936Z,-1.00
2023-01-30T06:16:01.480Z,-1.02
2023-01-30T06:18:28.250Z,-1.04
2023-01-30T06:20:55.118Z,-1.06
2023-01-30T06:23:25.016Z,-1.05
2023-01-30T06:25:52.751Z,-1.04
2023-01-30T06:28:20.481Z,-0.98
2023-01-30T06:30:47.181Z,-1.00
2023-01-30T06:33:14.396Z,-1.01
2023-01-30T06:35:41.994Z,-1.02
2023-01-30T06:38:10.868Z,-0.98
2023-01-30T06:40:37.872Z,-0.95
2023-01-30T06:43:04.432Z,-0.95
2023-01-30T06:45:30.932Z,-0.93
2023-01-30T06:47:57.579Z,-0.96
2023-01-30T06:50:26.265Z,-0.97
2023-01-30T06:52:53.781Z,-0.97
2023-01-30T06:55:23.727Z,-0.98
2023-01-30T06:58:00.099Z,-0.97
2023-01-30T07:00:26.720Z,-0.91
2023-01-30T07:02:53.287Z,-0.93
2023-01-30T07:05:20.082Z,-0.94
2023-01-30T07:07:46.814Z,-0.89
2023-01-30T07:10:13.686Z,-0.91
2023-01-30T07:12:40.181Z,-0.92
2023-01-30T07:15:07.504Z,-0.88
2023-01-30T07:17:34.205Z,-0.93
2023-01-30T07:20:00.747Z,-0.93
2023-01-30T07:22:27.290Z,-0.91
2023-01-30T07:24:53.774Z,-0.93
2023-01-30T07:27:20.250Z,-0.98
2023-01-30T07:29:46.779Z,-1.04
2023-01-30T07:32:19.190Z,-1.13
2023-01-30T07:34:47.032Z,-1.18
2023-01-30T07:37:14.457Z,-1.24
2023-01-30T07:39:41.044Z,-1.27
2023-01-30T07:42:07.936Z,-1.33
2023-01-30T07:44:34.700Z,-1.34
2023-01-30T07:47:01.546Z,-1.36
2023-01-30T07:49:28.400Z,-1.38
2023-01-30T07:51:55.036Z,-1.36
2023-01-30T07:54:21.734Z,-1.37
2023-01-30T07:56:48.342Z,-1.40
2023-01-30T07:59:16.011Z,-1.41
2023-01-30T08:01:42.555Z,-1.41
2023-01-30T08:04:09.196Z,-1.41
2023-01-30T08:06:39.231Z,-1.43
2023-01-30T08:09:06.498Z,-1.45
2023-01-30T08:11:33.364Z,-1.47
2023-01-30T08:14:00.004Z,-1.46
2023-01-30T08:16:26.787Z,-1.45
2023-01-30T08:18:53.573Z,-1.46
2023-01-30T08:21:20.496Z,-1.44
2023-01-30T08:23:47.363Z,-1.43
2023-01-30T08:26:14.053Z,-1.43
2023-01-30T08:28:40.939Z,-1.42
2023-01-30T08:31:13.274Z,-1.43
2023-01-30T08:33:40.160Z,-1.44
2023-01-30T08:36:07.159Z,-1.46
2023-01-30T08:38:33.680Z,-1.43
2023-01-30T08:41:00.591Z,-1.44
2023-01-30T08:43:27.709Z,-1.45
2023-01-30T08:45:58.493Z,-1.48
2023-01-30T08:48:25.017Z,-1.45
2023-01-30T08:50:56.163Z,-1.47
2023-01-30T08:53:23.187Z,-1.45
2023-01-30T08:55:53.858Z,-1.47
2023-01-30T08:58:21.706Z,-1.45
2023-01-30T09:00:49.835Z,-1.39
2023-01-30T09:03:18.053Z,-1.42
2023-01-30T09:05:45.414Z,-1.41
2023-01-30T09:08:13.422Z,-1.42
2023-01-30T09:10:40.004Z,-1.41
2023-01-30T09:13:10.734Z,-1.39
2023-01-30T09:15:37.390Z,-1.35
2023-01-30T09:18:04.563Z,-1.28
2023-01-30T09:20:31.350Z,-1.28
2023-01-30T09:22:58.045Z,-1.26
2023-01-30T09:25:24.684Z,-1.26
2023-01-30T09:27:51.402Z,-1.21
2023-01-30T09:30:19.171Z,-1.22
2023-01-30T09:32:46.357Z,-1.18
2023-01-30T09:35:13.025Z,-1.10
2023-01-30T09:37:47.637Z,-1.09
2023-01-30T09:40:39.013Z,-1.10
2023-01-30T09:43:34.919Z,-1.08
2023-01-30T09:46:20.039Z,-1.07
2023-01-30T09:49:17.988Z,-1.00
2023-01-30T09:51:59.350Z,-0.88
2023-01-30T09:54:30.456Z,-0.79
2023-01-30T09:57:22.824Z,-0.77
2023-01-30T10:00:02.614Z,-0.70
2023-01-30T10:03:08.297Z,-0.68
2023-01-30T10:05:55.146Z,-0.69
2023-01-30T10:08:36.898Z,-0.71
2023-01-30T10:11:15.472Z,-0.74
2023-01-30T10:14:03.197Z,-0.71
2023-01-30T10:16:53.786Z,-0.78
2023-01-30T10:19:35.864Z,-0.78
2023-01-30T10:22:25.732Z,-0.77
2023-01-30T10:25:24.888Z,-0.75
2023-01-30T10:27:58.801Z,-0.75
2023-01-30T10:30:25.681Z,-0.73
2023-01-30T10:33:01.766Z,-0.73
2023-01-30T10:35:39.100Z,-0.70
2023-01-30T10:38:26.403Z,-0.69
2023-01-30T10:41:15.074Z,-0.72
2023-01-30T10:44:10.592Z,-0.68
2023-01-30T10:47:06.376Z,-0.68
2023-01-30T10:49:44.213Z,-0.67
2023-01-30T10:52:35.530Z,-0.64
2023-01-30T10:55:38.295Z,-0.62
2023-01-30T10:58:42.251Z,-0.62
2023-01-30T11:04:34.447Z,-0.52
2023-01-30T11:07:03.140Z,-0.55
2023-01-30T11:09:40.283Z,-0.52
2023-01-30T11:12:08.380Z,-0.49
2023-01-30T11:14:59.505Z,-0.44
2023-01-30T11:17:36.948Z,-0.44
2023-01-30T11:20:17.152Z,-0.42
2023-01-30T11:22:51.386Z,-0.40
2023-01-30T11:25:22.489Z,-0.36
2023-01-30T11:27:58.097Z,-0.33
2023-01-30T11:30:33.781Z,-0.24
2023-01-30T11:33:22.372Z,-0.26
2023-01-30T11:36:00.299Z,-0.21
2023-01-30T11:38:31.109Z,-0.15
2023-01-30T11:41:05.525Z,-0.08
2023-01-30T11:43:34.958Z,-0.02
2023-01-30T11:46:03.384Z,0.04
2023-01-30T11:49:14.112Z,0.05
2023-01-30T11:51:24.188Z,-0.01
2023-01-30T11:54:00.783Z,0.01
2023-01-30T11:56:38.686Z,0.02
2023-01-30T11:59:13.527Z,-0.04
2023-01-30T12:01:41.629Z,-0.03
2023-01-30T12:04:12.905Z,-0.06
2023-01-30T12:06:43.556Z,-0.10
2023-01-30T12:09:38.654Z,-0.09
2023-01-30T12:12:33.585Z,-0.10
2023-01-30T12:15:16.870Z,-0.09
2023-01-30T12:18:00.151Z,-0.08
2023-01-30T12:21:06.919Z,-0.05
2023-01-30T12:23:55.436Z,-0.06
2023-01-30T12:26:52.323Z,-0.05
2023-01-30T12:29:46.061Z,-0.04
2023-01-30T12:32:21.551Z,0.02
2023-01-30T12:34:50.896Z,0.02
2023-01-30T12:37:21.475Z,0.04
2023-01-30T12:40:07.748Z,0.06
2023-01-30T12:43:14.755Z,0.04
2023-01-30T12:46:03.999Z,0.04
2023-01-30T12:49:10.120Z,0.09
2023-01-30T12:52:23.253Z,0.06
2023-01-30T12:55:02.683Z,0.06
2023-01-30T12:57:30.574Z,0.07
2023-01-30T13:00:24.941Z,0.09
2023-01-30T13:03:11.006Z,0.09
2023-01-30T13:05:51.156Z,0.14
2023-01-30T13:08:44.024Z,0.13
2023-01-30T13:11:31.010Z,0.18
2023-01-30T13:14:20.050Z,0.14
2023-01-30T13:16:57.908Z,0.14
2023-01-30T13:19:40.952Z,0.17
2023-01-30T13:22:39.056Z,0.17
2023-01-30T13:25:28.720Z,0.18
2023-01-30T13:28:00.735Z,0.22
2023-01-30T13:30:31.158Z,0.22
2023-01-30T13:33:04.738Z,0.22
2023-01-30T13:35:40.604Z,0.23
2023-01-30T13:38:12.666Z,0.24
2023-01-30T13:40:43.224Z,0.23
2023-01-30T13:43:33.720Z,0.22
2023-01-30T13:46:07.056Z,0.23
2023-01-30T13:48:34.973Z,0.23
2023-01-30T13:51:24.846Z,0.26
2023-01-30T13:54:17.924Z,0.26
2023-01-30T13:56:54.341Z,0.27
2023-01-30T13:59:40.989Z,0.27
2023-01-30T14:02:21.098Z,0.25
2023-01-30T14:04:53.902Z,0.26
2023-01-30T14:07:26.971Z,0.26
2023-01-30T14:10:03.894Z,0.26
2023-01-30T14:12:52.547Z,0.24
2023-01-30T14:15:29.230Z,0.25
2023-01-30T14:18:15.957Z,0.26
2023-01-30T14:20:46.946Z,0.24
2023-01-30T14:23:32.634Z,0.25
2023-01-30T14:26:01.304Z,0.28
2023-01-30T14:28:29.122Z,0.27
2023-01-30T14:31:02.430Z,0.26
2023-01-30T14:33:51.334Z,0.24
2023-01-30T14:36:25.194Z,0.24
2023-01-30T14:39:17.805Z,0.19
2023-01-30T14:42:07.326Z,0.20
2023-01-30T14:45:14.976Z,0.20
2023-01-30T14:47:47.631Z,0.19
2023-01-30T14:50:21.967Z,0.15
2023-01-30T14:52:55.976Z,0.18
2023-01-30T14:55:30.755Z,0.16
2023-01-30T14:58:02.719Z,0.17
2023-01-30T15:00:32.437Z,0.16
2023-01-30T15:03:05.347Z,0.16
2023-01-30T15:05:44.241Z,0.18
2023-01-30T15:08:19.464Z,0.21
2023-01-30T15:11:19.431Z,0.21
2023-01-30T15:14:19.381Z,0.24
2023-01-30T15:17:03.444Z,0.25
2023-01-30T15:20:17.954Z,0.29
2023-01-30T15:22:59.756Z,0.31
2023-01-30T15:25:40.461Z,0.31
2023-01-30T15:28:31.503Z,0.33
2023-01-30T15:31:18.009Z,0.33
2023-01-30T15:33:49.363Z,0.34
2023-01-30T15:36:35.630Z,0.34
2023-01-30T15:39:06.316Z,0.35
2023-01-30T15:41:42.537Z,0.35
2023-01-30T15:44:11.037Z,0.36
2023-01-30T15:47:05.960Z,0.39
2023-01-30T15:49:56.093Z,0.39
2023-01-30T15:52:30.315Z,0.39
2023-01-30T15:55:02.148Z,0.41
2023-01-30T15:57:35.013Z,0.40
2023-01-30T16:00:08.848Z,0.42
2023-01-30T16:02:43.383Z,0.44
2023-01-30T16:05:20.269Z,0.46
2023-01-30T16:07:51.111Z,0.49
2023-01-30T16:10:28.700Z,0.50
2023-01-30T16:13:02.367Z,0.54
2023-01-30T16:15:41.244Z,0.54
2023-01-30T16:18:21.773Z,0.54
2023-01-30T16:21:06.655Z,0.56
2023-01-30T16:23:38.771Z,0.56
2023-01-30T16:26:18.055Z,0.59
2023-01-30T16:28:46.338Z,0.63
2023-01-30T16:31:15.548Z,0.65
2023-01-30T16:33:50.939Z,0.65
2023-01-30T16:36:21.886Z,0.66
2023-01-30T16:38:51.692Z,0.70
2023-01-30T16:41:36.424Z,0.71
2023-01-30T16:44:24.019Z,0.75
2023-01-30T16:46:57.995Z,0.76
2023-01-30T16:49:37.370Z,0.80
2023-01-30T16:52:34.705Z,0.80
2023-01-30T16:55:06.260Z,0.79
2023-01-30T16:57:40.446Z,0.78
2023-01-30T17:00:24.261Z,0.81
2023-01-30T17:03:01.715Z,0.81
2023-01-30T17:05:39.431Z,0.82
2023-01-30T17:08:45.088Z,0.82
2023-01-30T17:11:42.749Z,0.83
2023-01-30T17:14:24.174Z,0.83
2023-01-30T17:17:06.687Z,0.82
2023-01-30T17:19:36.290Z,0.85
2023-01-30T17:22:15.374Z,0.90
2023-01-30T17:24:43.372Z,0.90
2023-01-30T17:27:11.201Z,0.92
2023-01-30T17:29:42.777Z,0.94
2023-01-30T17:32:13.369Z,0.94
2023-01-30T17:34:41.612Z,0.96
2023-01-30T17:37:15.523Z,0.97
2023-01-30T17:39:43.441Z,1.00
2023-01-30T17:42:17.851Z,1.00
2023-01-30T17:44:45.797Z,1.02
2023-01-30T17:47:13.721Z,1.04
2023-01-30T17:49:41.632Z,1.07
2023-01-30T17:52:12.415Z,1.08
2023-01-30T17:54:40.501Z,1.12
2023-01-30T17:57:12.921Z,1.13
2023-01-30T17:59:40.663Z,1.13
2023-01-30T18:02:11.602Z,1.15
2023-01-30T18:04:40.126Z,1.17
2023-01-30T18:07:13.342Z,1.20
2023-01-30T18:09:41.139Z,1.23
2023-01-30T18:12:09.019Z,1.25
2023-01-30T18:14:36.956Z,1.27
2023-01-30T18:17:04.903Z,1.29
2023-01-30T18:19:33.078Z,1.28
2023-01-30T18:22:00.897Z,1.30
2023-01-30T18:24:28.761Z,1.29
2023-01-30T18:26:56.678Z,1.30
2023-01-30T18:29:24.764Z,1.29
2023-01-30T18:31:52.752Z,1.31
2023-01-30T18:34:20.705Z,1.31
2023-01-30T18:36:48.553Z,1.35
2023-01-30T18:39:16.342Z,1.35
2023-01-30T18:41:44.223Z,1.34
2023-01-30T18:44:13.060Z,1.36
2023-01-30T18:46:40.984Z,1.34
2023-01-30T18:49:09.623Z,1.35
2023-01-30T18:51:37.638Z,1.36
2023-01-30T18:54:05.457Z,1.35
2023-01-30T18:56:34.038Z,1.40
2023-01-30T18:59:04.456Z,1.43
2023-01-30T19:04:36.447Z,1.45
2023-01-30T19:07:04.418Z,1.44
2023-01-30T19:09:32.384Z,1.45
2023-01-30T19:12:18.976Z,1.45
2023-01-30T19:14:47.226Z,1.42
2023-01-30T19:17:16.408Z,1.40
2023-01-30T19:19:46.052Z,1.40
2023-01-30T19:22:14.352Z,1.38
2023-01-30T19:24:43.091Z,1.37
2023-01-30T19:27:13.810Z,1.40
2023-01-30T19:29:42.054Z,1.40
2023-01-30T19:32:09.964Z,1.40
2023-01-30T19:34:38.529Z,1.38
2023-01-30T19:37:06.842Z,1.38
2023-01-30T19:39:34.668Z,1.35
2023-01-30T19:42:02.606Z,1.32
2023-01-30T19:44:30.577Z,1.32
2023-01-30T19:47:02.425Z,1.30
2023-01-30T19:49:30.581Z,1.26
2023-01-30T19:52:02.023Z,1.25
2023-01-30T19:54:30.041Z,1.24
2023-01-30T19:56:59.769Z,1.24
2023-01-30T19:59:28.117Z,1.22
2023-01-30T20:01:56.319Z,1.21
2023-01-30T20:04:24.247Z,1.18
2023-01-30T20:06:52.125Z,1.16
2023-01-30T20:09:20.201Z,1.14
2023-01-30T20:11:48.158Z,1.12
2023-01-30T20:14:16.307Z,1.10
2023-01-30T20:16:45.434Z,1.13
2023-01-30T20:19:16.384Z,1.10
2023-01-30T20:21:45.398Z,1.06
2023-01-30T20:24:15.009Z,1.06
2023-01-30T20:26:47.150Z,1.10
2023-01-30T20:29:17.617Z,1.10
2023-01-30T20:31:45.809Z,1.10
2023-01-30T20:34:15.304Z,1.12
2023-01-30T20:36:43.588Z,1.13
2023-01-30T20:39:12.028Z,1.11
2023-01-30T20:41:40.136Z,1.12
2023-01-30T20:44:11.713Z,1.11
2023-01-30T20:46:46.559Z,1.09
2023-01-30T20:49:20.198Z,1.08
2023-01-30T20:51:50.354Z,1.07
2023-01-30T20:54:20.844Z,1.09
2023-01-30T20:56:51.432Z,1.07
2023-01-30T20:59:27.145Z,1.05
2023-01-30T21:01:55.414Z,1.06
2023-01-30T21:04:26.915Z,1.06
2023-01-30T21:06:55.293Z,1.08
2023-01-30T21:09:24.051Z,1.10
2023-01-30T21:11:53.354Z,1.10
2023-01-30T21:14:21.394Z,1.09
2023-01-30T21:16:49.566Z,1.11
2023-01-30T21:19:18.203Z,1.08
2023-01-30T21:21:53.454Z,1.08
2023-01-30T21:24:27.698Z,1.09
2023-01-30T21:26:56.549Z,1.04
2023-01-30T21:29:27.742Z,1.04
2023-01-30T21:31:57.008Z,1.01
2023-01-30T21:34:25.670Z,0.99
2023-01-30T21:37:12.801Z,0.99
2023-01-30T21:39:59.509Z,0.98
2023-01-30T21:42:46.433Z,0.99
2023-01-30T21:45:21.654Z,0.97
2023-01-30T21:47:51.384Z,0.98
2023-01-30T21:50:19.643Z,0.98
2023-01-30T21:52:48.314Z,0.98
2023-01-30T21:55:16.220Z,0.99
2023-01-30T21:57:44.218Z,0.98
2023-01-30T22:00:13.085Z,0.98
2023-01-30T22:02:40.946Z,0.96
2023-01-30T22:05:09.774Z,0.93
2023-01-30T22:07:37.737Z,0.92
2023-01-30T22:10:05.725Z,0.94
2023-01-30T22:12:33.698Z,0.94
2023-01-30T22:15:01.580Z,0.96
2023-01-30T22:17:29.640Z,0.98
2023-01-30T22:19:57.497Z,1.01
2023-01-30T22:22:25.889Z,1.02
2023-01-30T22:24:53.867Z,1.02
2023-01-30T22:27:21.713Z,1.01
2023-01-30T22:29:49.622Z,1.01
2023-01-30T22:32:17.701Z,1.01
2023-01-30T22:34:47.482Z,1.01
2023-01-30T22:37:16.446Z,0.99
2023-01-30T22:39:44.336Z,1.01
2023-01-30T22:42:12.601Z,1.02
2023-01-30T22:44:43.396Z,1.04
2023-01-30T22:47:14.695Z,1.07
2023-01-30T22:49:42.555Z,1.09
2023-01-30T22:52:10.461Z,1.09
2023-01-30T22:54:38.251Z,1.12
2023-01-30T22:57:06.165Z,1.12
2023-01-30T22:59:34.065Z,1.14
2023-01-30T23:02:02.308Z,1.18
2023-01-30T23:04:30.189Z,1.20
2023-01-30T23:06:59.629Z,1.21
2023-01-30T23:09:27.677Z,1.25
2023-01-30T23:12:16.181Z,1.26
2023-01-30T23:14:46.120Z,1.28
2023-01-30T23:17:32.881Z,1.27
2023-01-30T23:20:00.692Z,1.29
2023-01-30T23:22:28.815Z,1.31
2023-01-30T23:24:57.048Z,1.33
2023-01-30T23:27:25.471Z,1.33
2023-01-30T23:29:53.494Z,1.37
2023-01-30T23:32:23.631Z,1.39
2023-01-30T23:34:52.035Z,1.41
2023-01-30T23:37:40.175Z,1.42
2023-01-30T23:40:08.801Z,1.42
2023-01-30T23:42:36.613Z,1.42
2023-01-30T23:45:05.129Z,1.43
2023-01-30T23:47:33.058Z,1.44
2023-01-30T23:50:01.061Z,1.46
2023-01-30T23:52:29.072Z,1.47
2023-01-30T23:54:57.071Z,1.47
2023-01-30T23:57:24.950Z,1.46
2023-01-30T23:59:52.822Z,1.47
